sensor_id;sensor_type;location;lat;lon;timestamp;pressure;altitude;pressure_sealevel;temperature;humidity
73860;BME280;62197;51.632;13.700;2023-04-24T00:00:12;99017.38;;;11.16;100.00
73860;BME280;62197;51.632;13.700;2023-04-24T00:02:40;99005.50;;;11.15;100.00
73860;BME280;62197;51.632;13.700;2023-04-24T00:05:06;98994.19;;;11.12;100.00
73860;BME280;62197;51.632;13.700;2023-04-24T00:07:32;99001.09;;;11.09;100.00
73860;BME280;62197;51.632;13.700;2023-04-24T00:09:58;98994.75;;;11.09;100.00
73860;BME280;62197;51.632;13.700;2023-04-24T00:12:24;98998.63;;;11.08;100.00
73860;BME280;62197;51.632;13.700;2023-04-24T00:14:49;98988.97;;;11.05;100.00
73860;BME280;62197;51.632;13.700;2023-04-24T00:17:14;98989.25;;;11.09;100.00
73860;BME280;62197;51.632;13.700;2023-04-24T00:19:40;98989.78;;;11.06;100.00
73860;BME280;62197;51.632;13.700;2023-04-24T00:22:05;98986.47;;;11.09;100.00
73860;BME280;62197;51.632;13.700;2023-04-24T00:24:30;98977.66;;;11.07;100.00
73860;BME280;62197;51.632;13.700;2023-04-24T00:26:56;98977.09;;;11.15;100.00
73860;BME280;62197;51.632;13.700;2023-04-24T00:29:21;98979.28;;;11.13;100.00
73860;BME280;62197;51.632;13.700;2023-04-24T00:31:46;98976.78;;;11.11;100.00
73860;BME280;62197;51.632;13.700;2023-04-24T00:34:12;98980.38;;;11.17;100.00
73860;BME280;62197;51.632;13.700;2023-04-24T00:36:37;98980.38;;;11.17;100.00
73860;BME280;62197;51.632;13.700;2023-04-24T00:39:03;98992.22;;;11.27;100.00
73860;BME280;62197;51.632;13.700;2023-04-24T00:41:29;98991.34;;;11.37;100.00
73860;BME280;62197;51.632;13.700;2023-04-24T00:43:54;98991.09;;;11.33;100.00
73860;BME280;62197;51.632;13.700;2023-04-24T00:46:20;98996.34;;;11.30;100.00
73860;BME280;62197;51.632;13.700;2023-04-24T00:48:46;98989.72;;;11.26;100.00
73860;BME280;62197;51.632;13.700;2023-04-24T00:51:12;98987.81;;;11.21;100.00
73860;BME280;62197;51.632;13.700;2023-04-24T00:53:37;98991.41;;;11.22;100.00
73860;BME280;62197;51.632;13.700;2023-04-24T00:56:02;98988.66;;;11.17;100.00
73860;BME280;62197;51.632;13.700;2023-04-24T00:58:29;98990.59;;;11.16;100.00
73860;BME280;62197;51.632;13.700;2023-04-24T01:00:56;98988.13;;;11.15;100.00
73860;BME280;62197;51.632;13.700;2023-04-24T01:03:24;98983.97;;;11.12;100.00
73860;BME280;62197;51.632;13.700;2023-04-24T01:05:52;98984.81;;;11.08;100.00
73860;BME280;62197;51.632;13.700;2023-04-24T01:08:17;98977.66;;;11.07;100.00
73860;BME280;62197;51.632;13.700;2023-04-24T01:10:44;98980.41;;;11.07;100.00
73860;BME280;62197;51.632;13.700;2023-04-24T01:13:11;98981.78;;;11.04;100.00
73860;BME280;62197;51.632;13.700;2023-04-24T01:15:36;98969.41;;;10.97;100.00
73860;BME280;62197;51.632;13.700;2023-04-24T01:18:02;98973.84;;;10.87;100.00
73860;BME280;62197;51.632;13.700;2023-04-24T01:20:28;98965.84;;;10.81;100.00
73860;BME280;62197;51.632;13.700;2023-04-24T01:22:55;98966.13;;;10.74;100.00
73860;BME280;62197;51.632;13.700;2023-04-24T01:25:22;98969.19;;;10.68;100.00
73860;BME280;62197;51.632;13.700;2023-04-24T01:27:47;98972.22;;;10.66;100.00
73860;BME280;62197;51.632;13.700;2023-04-24T01:30:13;98968.63;;;10.66;100.00
73860;BME280;62197;51.632;13.700;2023-04-24T01:32:38;98975.25;;;10.70;100.00
73860;BME280;62197;51.632;13.700;2023-04-24T01:35:04;98965.84;;;10.71;100.00
73860;BME280;62197;51.632;13.700;2023-04-24T01:37:30;98970.28;;;10.67;100.00
73860;BME280;62197;51.632;13.700;2023-04-24T01:39:57;98967.81;;;10.65;100.00
73860;BME280;62197;51.632;13.700;2023-04-24T01:42:22;98962.84;;;10.62;100.00
73860;BME280;62197;51.632;13.700;2023-04-24T01:44:48;98959.53;;;10.65;100.00
73860;BME280;62197;51.632;13.700;2023-04-24T01:47:14;98967.78;;;10.70;100.00
73860;BME280;62197;51.632;13.700;2023-04-24T01:49:39;98968.34;;;10.77;100.00
73860;BME280;62197;51.632;13.700;2023-04-24T01:52:04;98972.22;;;10.71;100.00
73860;BME280;62197;51.632;13.700;2023-04-24T01:54:30;98966.41;;;10.63;100.00
73860;BME280;62197;51.632;13.700;2023-04-24T01:56:55;98964.53;;;10.58;100.00
73860;BME280;62197;51.632;13.700;2023-04-24T01:59:21;98963.13;;;10.56;100.00
73860;BME280;62197;51.632;13.700;2023-04-24T02:01:48;98960.66;;;10.54;100.00
73860;BME280;62197;51.632;13.700;2023-04-24T02:04:13;98957.34;;;10.52;100.00
73860;BME280;62197;51.632;13.700;2023-04-24T02:06:40;98959.00;;;10.53;100.00
73860;BME280;62197;51.632;13.700;2023-04-24T02:09:05;98965.91;;;10.51;100.00
73860;BME280;62197;51.632;13.700;2023-04-24T02:11:31;98957.88;;;10.49;100.00
73860;BME280;62197;51.632;13.700;2023-04-24T02:13:56;98958.72;;;10.55;100.00
73860;BME280;62197;51.632;13.700;2023-04-24T02:16:22;98957.09;;;10.49;100.00
73860;BME280;62197;51.632;13.700;2023-04-24T02:18:47;98946.88;;;10.44;100.00
73860;BME280;62197;51.632;13.700;2023-04-24T02:21:12;98958.47;;;10.46;100.00
73860;BME280;62197;51.632;13.700;2023-04-24T02:23:38;98946.88;;;10.39;100.00
73860;BME280;62197;51.632;13.700;2023-04-24T02:26:03;98955.97;;;10.45;100.00
73860;BME280;62197;51.632;13.700;2023-04-24T02:28:28;98954.88;;;10.41;100.00
73860;BME280;62197;51.632;13.700;2023-04-24T02:30:54;98954.03;;;10.45;100.00
73860;BME280;62197;51.632;13.700;2023-04-24T02:33:19;98953.22;;;10.50;100.00
73860;BME280;62197;51.632;13.700;2023-04-24T02:35:45;98948.53;;;10.50;100.00
73860;BME280;62197;51.632;13.700;2023-04-24T02:38:10;98955.13;;;10.59;100.00
73860;BME280;62197;51.632;13.700;2023-04-24T02:40:35;98950.72;;;10.58;100.00
73860;BME280;62197;51.632;13.700;2023-04-24T02:43:01;98954.03;;;10.60;100.00
73860;BME280;62197;51.632;13.700;2023-04-24T02:45:26;98954.59;;;10.62;100.00
73860;BME280;62197;51.632;13.700;2023-04-24T02:47:51;98957.91;;;10.54;100.00
73860;BME280;62197;51.632;13.700;2023-04-24T02:50:17;98959.56;;;10.50;100.00
73860;BME280;62197;51.632;13.700;2023-04-24T02:52:42;98959.00;;;10.48;100.00
73860;BME280;62197;51.632;13.700;2023-04-24T02:55:07;98962.31;;;10.45;100.00
73860;BME280;62197;51.632;13.700;2023-04-24T02:57:33;98947.44;;;10.41;100.00
73860;BME280;62197;51.632;13.700;2023-04-24T02:59:59;98964.50;;;10.43;100.00
73860;BME280;62197;51.632;13.700;2023-04-24T03:02:24;98968.91;;;10.49;100.00
73860;BME280;62197;51.632;13.700;2023-04-24T03:04:50;98960.13;;;10.42;100.00
73860;BME280;62197;51.632;13.700;2023-04-24T03:07:15;98961.22;;;10.41;100.00
73860;BME280;62197;51.632;13.700;2023-04-24T03:09:41;98964.50;;;10.43;100.00
73860;BME280;62197;51.632;13.700;2023-04-24T03:12:06;98967.25;;;10.43;100.00
73860;BME280;62197;51.632;13.700;2023-04-24T03:14:31;98961.75;;;10.38;100.00
73860;BME280;62197;51.632;13.700;2023-04-24T03:16:57;98960.69;;;10.39;100.00
73860;BME280;62197;51.632;13.700;2023-04-24T03:19:22;98964.53;;;10.38;100.00
73860;BME280;62197;51.632;13.700;2023-04-24T03:21:48;98962.06;;;10.37;100.00
73860;BME280;62197;51.632;13.700;2023-04-24T03:24:14;98970.84;;;10.34;100.00
73860;BME280;62197;51.632;13.700;2023-04-24T03:26:39;98960.97;;;10.28;100.00
73860;BME280;62197;51.632;13.700;2023-04-24T03:29:04;98963.44;;;10.29;100.00
73860;BME280;62197;51.632;13.700;2023-04-24T03:31:29;98961.75;;;10.28;100.00
73860;BME280;62197;51.632;13.700;2023-04-24T03:33:55;98960.66;;;10.24;100.00
73860;BME280;62197;51.632;13.700;2023-04-24T03:36:20;98964.25;;;10.25;100.00
73860;BME280;62197;51.632;13.700;2023-04-24T03:38:45;98959.56;;;10.20;100.00
73860;BME280;62197;51.632;13.700;2023-04-24T03:41:11;98967.81;;;10.20;100.00
73860;BME280;62197;51.632;13.700;2023-04-24T03:43:37;98971.72;;;10.14;100.00
73860;BME280;62197;51.632;13.700;2023-04-24T03:46:02;98960.38;;;10.11;100.00
73860;BME280;62197;51.632;13.700;2023-04-24T03:48:28;98962.84;;;10.07;100.00
73860;BME280;62197;51.632;13.700;2023-04-24T03:50:53;98962.84;;;10.02;100.00
73860;BME280;62197;51.632;13.700;2023-04-24T03:53:18;98963.94;;;10.06;100.00
73860;BME280;62197;51.632;13.700;2023-04-24T03:55:44;98973.84;;;10.07;100.00
73860;BME280;62197;51.632;13.700;2023-04-24T03:58:10;98976.94;;;10.16;100.00
73860;BME280;62197;51.632;13.700;2023-04-24T04:00:36;98979.13;;;10.19;100.00
73860;BME280;62197;51.632;13.700;2023-04-24T04:03:02;98975.00;;;10.21;100.00
73860;BME280;62197;51.632;13.700;2023-04-24T04:05:28;98976.66;;;10.27;100.00
73860;BME280;62197;51.632;13.700;2023-04-24T04:07:53;98971.72;;;10.39;100.00
73860;BME280;62197;51.632;13.700;2023-04-24T04:10:19;98986.59;;;10.48;100.00
73860;BME280;62197;51.632;13.700;2023-04-24T04:12:44;98977.75;;;10.46;100.00
73860;BME280;62197;51.632;13.700;2023-04-24T04:15:09;98977.75;;;10.46;100.00
73860;BME280;62197;51.632;13.700;2023-04-24T04:17:35;98985.47;;;10.49;100.00
73860;BME280;62197;51.632;13.700;2023-04-24T04:20:00;98980.50;;;10.36;100.00
73860;BME280;62197;51.632;13.700;2023-04-24T04:22:26;98983.81;;;10.38;100.00
73860;BME280;62197;51.632;13.700;2023-04-24T04:24:51;98988.78;;;10.46;100.00
73860;BME280;62197;51.632;13.700;2023-04-24T04:27:17;98982.16;;;10.47;100.00
73860;BME280;62197;51.632;13.700;2023-04-24T04:29:44;98983.00;;;10.48;100.00
73860;BME280;62197;51.632;13.700;2023-04-24T04:32:09;98982.72;;;10.54;100.00
73860;BME280;62197;51.632;13.700;2023-04-24T04:34:34;98986.56;;;10.53;100.00
73860;BME280;62197;51.632;13.700;2023-04-24T04:37:03;98989.63;;;10.47;100.00
73860;BME280;62197;51.632;13.700;2023-04-24T04:39:28;98997.06;;;10.51;100.00
73860;BME280;62197;51.632;13.700;2023-04-24T04:41:54;98988.50;;;10.48;100.00
73860;BME280;62197;51.632;13.700;2023-04-24T04:44:20;98992.09;;;10.43;100.00
73860;BME280;62197;51.632;13.700;2023-04-24T04:46:45;98993.75;;;10.44;100.00
73860;BME280;62197;51.632;13.700;2023-04-24T04:49:11;99012.50;;;10.52;100.00
73860;BME280;62197;51.632;13.700;2023-04-24T04:51:36;98998.16;;;10.60;100.00
73860;BME280;62197;51.632;13.700;2023-04-24T04:54:02;98989.03;;;10.65;100.00
73860;BME280;62197;51.632;13.700;2023-04-24T04:56:27;98994.81;;;10.68;100.00
73860;BME280;62197;51.632;13.700;2023-04-24T04:58:52;99000.63;;;10.77;100.00
73860;BME280;62197;51.632;13.700;2023-04-24T05:01:18;98999.22;;;10.84;100.00
73860;BME280;62197;51.632;13.700;2023-04-24T05:03:43;99003.09;;;10.83;100.00
73860;BME280;62197;51.632;13.700;2023-04-24T05:06:09;99005.56;;;10.85;100.00
73860;BME280;62197;51.632;13.700;2023-04-24T05:08:34;98995.91;;;10.93;100.00
73860;BME280;62197;51.632;13.700;2023-04-24T05:10:59;99006.38;;;10.96;100.00
73860;BME280;62197;51.632;13.700;2023-04-24T05:13:25;99004.16;;;10.98;100.00
73860;BME280;62197;51.632;13.700;2023-04-24T05:15:50;99006.91;;;11.08;100.00
73860;BME280;62197;51.632;13.700;2023-04-24T05:18:16;99007.72;;;11.13;100.00
73860;BME280;62197;51.632;13.700;2023-04-24T05:20:41;99016.81;;;11.24;100.00
73860;BME280;62197;51.632;13.700;2023-04-24T05:23:09;99022.84;;;11.36;100.00
73860;BME280;62197;51.632;13.700;2023-04-24T05:25:34;99015.03;;;11.48;100.00
73860;BME280;62197;51.632;13.700;2023-04-24T05:28:01;99018.31;;;11.60;100.00
73860;BME280;62197;51.632;13.700;2023-04-24T05:30:26;99016.06;;;11.72;100.00
73860;BME280;62197;51.632;13.700;2023-04-24T05:32:52;99015.97;;;11.92;100.00
73860;BME280;62197;51.632;13.700;2023-04-24T05:35:17;99012.28;;;12.07;100.00
73860;BME280;62197;51.632;13.700;2023-04-24T05:37:43;99005.84;;;12.16;100.00
73860;BME280;62197;51.632;13.700;2023-04-24T05:40:10;99021.78;;;12.29;100.00
73860;BME280;62197;51.632;13.700;2023-04-24T05:42:36;99015.09;;;12.40;100.00
73860;BME280;62197;51.632;13.700;2023-04-24T05:45:01;99018.84;;;12.54;100.00
73860;BME280;62197;51.632;13.700;2023-04-24T05:47:27;99018.72;;;12.69;100.00
73860;BME280;62197;51.632;13.700;2023-04-24T05:49:52;99027.75;;;12.80;100.00
73860;BME280;62197;51.632;13.700;2023-04-24T05:52:18;99017.19;;;12.87;100.00
73860;BME280;62197;51.632;13.700;2023-04-24T05:54:43;99027.63;;;13.24;100.00
73860;BME280;62197;51.632;13.700;2023-04-24T05:57:09;99026.09;;;13.60;100.00
73860;BME280;62197;51.632;13.700;2023-04-24T05:59:37;99024.69;;;13.39;100.00
73860;BME280;62197;51.632;13.700;2023-04-24T06:02:03;99021.03;;;13.20;100.00
73860;BME280;62197;51.632;13.700;2023-04-24T06:04:29;99017.19;;;13.16;100.00
73860;BME280;62197;51.632;13.700;2023-04-24T06:06:54;99018.91;;;13.12;100.00
73860;BME280;62197;51.632;13.700;2023-04-24T06:09:24;99024.66;;;13.15;100.00
73860;BME280;62197;51.632;13.700;2023-04-24T06:11:50;99020.59;;;13.08;100.00
73860;BME280;62197;51.632;13.700;2023-04-24T06:14:18;99017.81;;;13.03;100.00
73860;BME280;62197;51.632;13.700;2023-04-24T06:16:43;99034.28;;;12.94;100.00
73860;BME280;62197;51.632;13.700;2023-04-24T06:19:08;99027.88;;;12.99;100.00
73860;BME280;62197;51.632;13.700;2023-04-24T06:21:34;99022.34;;;12.94;100.00
73860;BME280;62197;51.632;13.700;2023-04-24T06:23:59;99031.44;;;13.04;100.00
73860;BME280;62197;51.632;13.700;2023-04-24T06:26:25;99023.38;;;13.03;100.00
73860;BME280;62197;51.632;13.700;2023-04-24T06:28:51;99028.38;;;13.01;100.00
73860;BME280;62197;51.632;13.700;2023-04-24T06:31:19;99020.59;;;13.03;100.00
73860;BME280;62197;51.632;13.700;2023-04-24T06:33:44;99031.06;;;13.11;100.00
73860;BME280;62197;51.632;13.700;2023-04-24T06:36:10;99039.75;;;13.28;100.00
73860;BME280;62197;51.632;13.700;2023-04-24T06:38:35;99037.28;;;13.26;100.00
73860;BME280;62197;51.632;13.700;2023-04-24T06:41:01;99033.22;;;13.19;100.00
73860;BME280;62197;51.632;13.700;2023-04-24T06:43:26;99043.47;;;13.18;100.00
73860;BME280;62197;51.632;13.700;2023-04-24T06:45:51;99032.56;;;13.27;100.00
73860;BME280;62197;51.632;13.700;2023-04-24T06:48:17;99033.88;;;13.34;100.00
73860;BME280;62197;51.632;13.700;2023-04-24T06:50:42;99043.47;;;13.42;100.00
73860;BME280;62197;51.632;13.700;2023-04-24T06:53:07;99025.59;;;13.53;100.00
73860;BME280;62197;51.632;13.700;2023-04-24T06:55:35;99035.88;;;13.95;99.61
73860;BME280;62197;51.632;13.700;2023-04-24T06:58:01;99021.75;;;14.15;97.00
73860;BME280;62197;51.632;13.700;2023-04-24T07:00:26;99030.63;;;14.68;95.14
73860;BME280;62197;51.632;13.700;2023-04-24T07:02:51;99015.66;;;14.50;92.63
73860;BME280;62197;51.632;13.700;2023-04-24T07:05:17;99021.53;;;14.48;92.70
73860;BME280;62197;51.632;13.700;2023-04-24T07:07:46;99025.59;;;14.37;95.68
73860;BME280;62197;51.632;13.700;2023-04-24T07:10:11;99028.13;;;14.53;94.55
73860;BME280;62197;51.632;13.700;2023-04-24T07:12:37;99033.41;;;14.68;91.98
73860;BME280;62197;51.632;13.700;2023-04-24T07:15:02;99037.94;;;14.96;93.55
73860;BME280;62197;51.632;13.700;2023-04-24T07:17:28;99028.28;;;15.07;89.21
73860;BME280;62197;51.632;13.700;2023-04-24T07:19:53;99020.47;;;15.09;88.63
73860;BME280;62197;51.632;13.700;2023-04-24T07:22:19;99018.34;;;15.33;88.54
73860;BME280;62197;51.632;13.700;2023-04-24T07:24:44;99016.44;;;15.61;83.77
73860;BME280;62197;51.632;13.700;2023-04-24T07:27:09;99023.19;;;15.41;84.60
73860;BME280;62197;51.632;13.700;2023-04-24T07:29:35;99016.56;;;15.23;82.06
73860;BME280;62197;51.632;13.700;2023-04-24T07:32:00;99013.28;;;15.35;84.90
73860;BME280;62197;51.632;13.700;2023-04-24T07:34:26;99024.00;;;15.28;82.85
73860;BME280;62197;51.632;13.700;2023-04-24T07:36:51;99021.97;;;15.47;82.24
73860;BME280;62197;51.632;13.700;2023-04-24T07:39:17;99027.78;;;15.18;81.77
73860;BME280;62197;51.632;13.700;2023-04-24T07:41:42;99015.34;;;15.16;82.53
73860;BME280;62197;51.632;13.700;2023-04-24T07:44:07;99025.28;;;15.49;80.89
73860;BME280;62197;51.632;13.700;2023-04-24T07:46:33;99031.22;;;15.83;80.76
73860;BME280;62197;51.632;13.700;2023-04-24T07:48:58;99023.38;;;15.99;79.95
73860;BME280;62197;51.632;13.700;2023-04-24T07:51:25;99023.47;;;16.07;78.98
73860;BME280;62197;51.632;13.700;2023-04-24T07:53:52;99035.03;;;15.87;79.85
73860;BME280;62197;51.632;13.700;2023-04-24T07:56:18;99037.69;;;16.19;78.30
73860;BME280;62197;51.632;13.700;2023-04-24T07:58:43;99031.44;;;16.00;78.38
73860;BME280;62197;51.632;13.700;2023-04-24T08:01:08;99031.78;;;16.35;79.33
73860;BME280;62197;51.632;13.700;2023-04-24T08:03:34;99032.78;;;16.52;76.61
73860;BME280;62197;51.632;13.700;2023-04-24T08:05:59;99034.63;;;16.57;74.73
73860;BME280;62197;51.632;13.700;2023-04-24T08:08:25;99036.47;;;16.48;75.52
73860;BME280;62197;51.632;13.700;2023-04-24T08:10:50;99027.72;;;15.91;74.33
73860;BME280;62197;51.632;13.700;2023-04-24T08:13:16;99029.94;;;16.16;75.47
73860;BME280;62197;51.632;13.700;2023-04-24T08:15:41;99046.44;;;16.26;76.58
73860;BME280;62197;51.632;13.700;2023-04-24T08:18:06;99041.34;;;16.06;76.54
73860;BME280;62197;51.632;13.700;2023-04-24T08:20:32;99046.72;;;16.39;74.69
73860;BME280;62197;51.632;13.700;2023-04-24T08:22:57;99049.31;;;16.35;74.41
73860;BME280;62197;51.632;13.700;2023-04-24T08:25:22;99045.31;;;16.27;73.87
73860;BME280;62197;51.632;13.700;2023-04-24T08:27:50;99043.53;;;16.32;74.70
73860;BME280;62197;51.632;13.700;2023-04-24T08:30:15;99047.13;;;16.32;73.71
73860;BME280;62197;51.632;13.700;2023-04-24T08:32:41;99051.75;;;16.50;75.23
73860;BME280;62197;51.632;13.700;2023-04-24T08:35:06;99042.25;;;16.38;72.42
73860;BME280;62197;51.632;13.700;2023-04-24T08:37:34;99054.41;;;16.42;73.90
73860;BME280;62197;51.632;13.700;2023-04-24T08:39:59;99053.66;;;16.27;73.54
73860;BME280;62197;51.632;13.700;2023-04-24T08:42:26;99048.78;;;16.33;75.65
73860;BME280;62197;51.632;13.700;2023-04-24T08:44:54;99050.69;;;16.60;73.80
73860;BME280;62197;51.632;13.700;2023-04-24T08:47:20;99053.25;;;16.07;73.82
73860;BME280;62197;51.632;13.700;2023-04-24T08:49:47;99051.47;;;15.75;74.98
73860;BME280;62197;51.632;13.700;2023-04-24T08:52:13;99061.34;;;15.95;74.30
73860;BME280;62197;51.632;13.700;2023-04-24T08:54:39;99044.41;;;15.91;74.56
73860;BME280;62197;51.632;13.700;2023-04-24T08:57:07;99031.16;;;15.61;73.59
73860;BME280;62197;51.632;13.700;2023-04-24T08:59:33;99050.31;;;15.63;75.38
73860;BME280;62197;51.632;13.700;2023-04-24T09:01:59;99069.19;;;15.93;73.85
73860;BME280;62197;51.632;13.700;2023-04-24T09:04:25;99068.34;;;16.06;74.57
73860;BME280;62197;51.632;13.700;2023-04-24T09:06:52;99062.56;;;16.16;75.45
73860;BME280;62197;51.632;13.700;2023-04-24T09:09:20;99061.31;;;16.08;73.45
73860;BME280;62197;51.632;13.700;2023-04-24T09:11:46;99050.50;;;15.93;72.94
73860;BME280;62197;51.632;13.700;2023-04-24T09:14:12;99064.31;;;15.98;76.32
73860;BME280;62197;51.632;13.700;2023-04-24T09:16:38;99045.22;;;16.19;72.49
73860;BME280;62197;51.632;13.700;2023-04-24T09:19:03;99059.69;;;15.94;73.10
73860;BME280;62197;51.632;13.700;2023-04-24T09:21:35;99053.47;;;16.10;72.70
73860;BME280;62197;51.632;13.700;2023-04-24T09:24:01;99076.75;;;16.14;73.93
73860;BME280;62197;51.632;13.700;2023-04-24T09:26:29;99066.69;;;15.91;74.04
73860;BME280;62197;51.632;13.700;2023-04-24T09:28:56;99066.78;;;16.00;72.52
73860;BME280;62197;51.632;13.700;2023-04-24T09:31:22;99060.47;;;15.40;73.29
73860;BME280;62197;51.632;13.700;2023-04-24T09:34:06;99071.44;;;15.50;72.10
73860;BME280;62197;51.632;13.700;2023-04-24T09:36:35;99069.34;;;15.42;73.22
73860;BME280;62197;51.632;13.700;2023-04-24T09:39:05;99067.94;;;15.45;72.71
73860;BME280;62197;51.632;13.700;2023-04-24T09:41:33;99067.44;;;15.70;72.86
73860;BME280;62197;51.632;13.700;2023-04-24T09:44:12;99062.88;;;15.87;70.68
73860;BME280;62197;51.632;13.700;2023-04-24T09:46:37;99050.97;;;16.22;70.67
73860;BME280;62197;51.632;13.700;2023-04-24T09:49:12;99059.75;;;16.65;69.89
73860;BME280;62197;51.632;13.700;2023-04-24T09:51:38;99058.75;;;16.48;69.45
73860;BME280;62197;51.632;13.700;2023-04-24T09:54:17;99058.28;;;16.18;69.51
73860;BME280;62197;51.632;13.700;2023-04-24T09:56:44;99049.84;;;16.23;70.30
73860;BME280;62197;51.632;13.700;2023-04-24T09:59:11;99061.53;;;15.98;70.59
73860;BME280;62197;51.632;13.700;2023-04-24T10:01:36;99043.59;;;16.04;70.82
73860;BME280;62197;51.632;13.700;2023-04-24T10:04:03;99049.94;;;16.18;69.70
73860;BME280;62197;51.632;13.700;2023-04-24T10:06:35;99067.44;;;16.33;69.88
73860;BME280;62197;51.632;13.700;2023-04-24T10:09:01;99053.09;;;16.75;67.38
73860;BME280;62197;51.632;13.700;2023-04-24T10:11:27;99056.19;;;17.17;66.20
73860;BME280;62197;51.632;13.700;2023-04-24T10:13:53;99061.28;;;16.93;66.51
73860;BME280;62197;51.632;13.700;2023-04-24T10:16:20;99053.34;;;17.62;63.99
73860;BME280;62197;51.632;13.700;2023-04-24T10:18:48;99053.22;;;17.14;65.18
73860;BME280;62197;51.632;13.700;2023-04-24T10:21:14;99054.44;;;16.77;65.33
73860;BME280;62197;51.632;13.700;2023-04-24T10:23:41;99051.72;;;17.39;64.97
73860;BME280;62197;51.632;13.700;2023-04-24T10:26:09;99050.63;;;17.48;63.60
73860;BME280;62197;51.632;13.700;2023-04-24T10:28:36;99049.56;;;16.83;64.05
73860;BME280;62197;51.632;13.700;2023-04-24T10:31:01;99051.53;;;16.60;66.78
73860;BME280;62197;51.632;13.700;2023-04-24T10:33:27;99033.47;;;16.58;65.05
73860;BME280;62197;51.632;13.700;2023-04-24T10:35:54;99061.09;;;16.68;65.46
73860;BME280;62197;51.632;13.700;2023-04-24T10:38:25;99064.88;;;16.72;64.94
73860;BME280;62197;51.632;13.700;2023-04-24T10:40:57;99063.69;;;17.08;65.11
73860;BME280;62197;51.632;13.700;2023-04-24T10:43:33;99056.03;;;16.70;66.00
73860;BME280;62197;51.632;13.700;2023-04-24T10:46:03;99057.34;;;16.94;66.16
73860;BME280;62197;51.632;13.700;2023-04-24T10:48:28;99056.09;;;17.00;66.52
73860;BME280;62197;51.632;13.700;2023-04-24T10:50:54;99046.13;;;17.39;64.48
73860;BME280;62197;51.632;13.700;2023-04-24T10:53:27;99057.63;;;17.15;64.24
73860;BME280;62197;51.632;13.700;2023-04-24T10:58:41;99069.28;;;17.17;64.21
73860;BME280;62197;51.632;13.700;2023-04-24T11:01:23;99054.06;;;16.92;64.29
73860;BME280;62197;51.632;13.700;2023-04-24T11:03:55;99044.78;;;17.58;61.92
73860;BME280;62197;51.632;13.700;2023-04-24T11:06:35;99057.50;;;18.38;57.96
73860;BME280;62197;51.632;13.700;2023-04-24T11:09:05;99053.91;;;18.80;55.81
73860;BME280;62197;51.632;13.700;2023-04-24T11:11:32;99060.56;;;18.11;57.83
73860;BME280;62197;51.632;13.700;2023-04-24T11:16:43;99052.16;;;17.54;59.42
73860;BME280;62197;51.632;13.700;2023-04-24T11:26:58;99063.19;;;17.59;58.97
73860;BME280;62197;51.632;13.700;2023-04-24T11:29:41;99052.19;;;17.32;60.03
73860;BME280;62197;51.632;13.700;2023-04-24T11:37:24;99050.97;;;16.72;61.70
73860;BME280;62197;51.632;13.700;2023-04-24T11:39:51;99040.66;;;17.25;60.51
73860;BME280;62197;51.632;13.700;2023-04-24T11:42:17;99046.88;;;17.22;61.18
73860;BME280;62197;51.632;13.700;2023-04-24T11:44:43;99051.84;;;16.81;62.53
73860;BME280;62197;51.632;13.700;2023-04-24T11:47:08;99055.06;;;16.96;61.31
73860;BME280;62197;51.632;13.700;2023-04-24T11:49:36;99057.34;;;16.94;61.84
73860;BME280;62197;51.632;13.700;2023-04-24T11:52:02;99057.16;;;16.91;63.02
73860;BME280;62197;51.632;13.700;2023-04-24T11:54:27;99055.31;;;17.08;63.18
73860;BME280;62197;51.632;13.700;2023-04-24T11:56:53;99061.59;;;16.92;61.14
73860;BME280;62197;51.632;13.700;2023-04-24T11:59:18;99061.00;;;16.46;63.75
73860;BME280;62197;51.632;13.700;2023-04-24T12:01:47;99061.16;;;16.41;61.47
73860;BME280;62197;51.632;13.700;2023-04-24T12:04:14;99064.16;;;16.31;60.94
73860;BME280;62197;51.632;13.700;2023-04-24T12:06:40;99055.25;;;16.56;61.67
73860;BME280;62197;51.632;13.700;2023-04-24T12:09:23;99059.94;;;16.69;61.19
73860;BME280;62197;51.632;13.700;2023-04-24T12:11:57;99039.09;;;18.37;56.40
73860;BME280;62197;51.632;13.700;2023-04-24T12:14:23;99042.81;;;19.90;51.94
73860;BME280;62197;51.632;13.700;2023-04-24T12:16:50;99039.38;;;20.84;49.31
73860;BME280;62197;51.632;13.700;2023-04-24T12:19:21;99046.47;;;19.18;54.18
73860;BME280;62197;51.632;13.700;2023-04-24T12:22:02;99043.56;;;17.81;57.31
73860;BME280;62197;51.632;13.700;2023-04-24T12:24:28;99037.19;;;17.20;60.34
73860;BME280;62197;51.632;13.700;2023-04-24T12:26:54;99045.25;;;17.52;60.33
73860;BME280;62197;51.632;13.700;2023-04-24T12:29:20;99031.94;;;17.49;60.28
73860;BME280;62197;51.632;13.700;2023-04-24T12:31:46;99027.13;;;16.88;60.29
73860;BME280;62197;51.632;13.700;2023-04-24T12:34:21;99019.72;;;16.61;60.71
73860;BME280;62197;51.632;13.700;2023-04-24T12:36:47;99031.44;;;16.36;62.75
73860;BME280;62197;51.632;13.700;2023-04-24T12:39:17;99034.16;;;16.27;63.53
73860;BME280;62197;51.632;13.700;2023-04-24T12:41:56;99057.00;;;15.89;66.82
73860;BME280;62197;51.632;13.700;2023-04-24T12:44:33;99081.34;;;15.56;70.46
73860;BME280;62197;51.632;13.700;2023-04-24T12:47:00;99087.84;;;14.31;84.93
73860;BME280;62197;51.632;13.700;2023-04-24T12:49:25;99076.81;;;13.61;100.00
73860;BME280;62197;51.632;13.700;2023-04-24T12:51:51;99061.25;;;13.41;100.00
73860;BME280;62197;51.632;13.700;2023-04-24T12:54:16;99065.22;;;13.30;100.00
73860;BME280;62197;51.632;13.700;2023-04-24T12:56:41;99066.06;;;13.54;100.00
73860;BME280;62197;51.632;13.700;2023-04-24T12:59:07;99057.28;;;14.13;100.00